sensor_id;sensor_type;location;lat;lon;timestamp;P1;durP1;ratioP1;P2;durP2;ratioP2
63089;SDS011;49174;43.198;27.824;2023-04-22T03:57:24;18.17;;;8.98;;
63089;SDS011;49174;43.198;27.824;2023-04-22T04:48:57;13.63;;;6.68;;
63089;SDS011;49174;43.198;27.824;2023-04-22T05:47:49;13.52;;;6.82;;
63089;SDS011;49174;43.198;27.824;2023-04-22T05:50:15;12.38;;;6.43;;
63089;SDS011;49174;43.198;27.824;2023-04-22T05:52:40;19.92;;;8.65;;
63089;SDS011;49174;43.198;27.824;2023-04-22T05:55:06;18.25;;;7.80;;
63089;SDS011;49174;43.198;27.824;2023-04-22T06:05:51;23.60;;;12.38;;
63089;SDS011;49174;43.198;27.824;2023-04-22T06:08:17;23.20;;;11.80;;
63089;SDS011;49174;43.198;27.824;2023-04-22T06:24:05;8.93;;;3.08;;
63089;SDS011;49174;43.198;27.824;2023-04-22T06:29:13;6.88;;;3.60;;
63089;SDS011;49174;43.198;27.824;2023-04-22T06:31:39;6.88;;;2.97;;
63089;SDS011;49174;43.198;27.824;2023-04-22T06:34:05;9.70;;;2.65;;
63089;SDS011;49174;43.198;27.824;2023-04-22T06:36:31;8.73;;;2.70;;
63089;SDS011;49174;43.198;27.824;2023-04-22T06:39:01;5.47;;;2.33;;
63089;SDS011;49174;43.198;27.824;2023-04-22T06:41:29;8.98;;;2.33;;
63089;SDS011;49174;43.198;27.824;2023-04-22T06:43:57;4.70;;;2.40;;
63089;SDS011;49174;43.198;27.824;2023-04-22T06:49:05;5.40;;;2.60;;
63089;SDS011;49174;43.198;27.824;2023-04-22T06:51:30;9.82;;;2.50;;
63089;SDS011;49174;43.198;27.824;2023-04-22T07:15:45;15.05;;;2.95;;
63089;SDS011;49174;43.198;27.824;2023-04-22T07:21:01;5.78;;;1.80;;
63089;SDS011;49174;43.198;27.824;2023-04-22T07:23:27;6.18;;;2.15;;
63089;SDS011;49174;43.198;27.824;2023-04-22T07:25:53;5.25;;;1.88;;
63089;SDS011;49174;43.198;27.824;2023-04-22T07:28:18;7.93;;;2.15;;
63089;SDS011;49174;43.198;27.824;2023-04-22T07:30:44;6.22;;;2.53;;
63089;SDS011;49174;43.198;27.824;2023-04-22T07:33:10;5.63;;;1.95;;
63089;SDS011;49174;43.198;27.824;2023-04-22T07:35:36;4.95;;;2.50;;
63089;SDS011;49174;43.198;27.824;2023-04-22T07:38:01;6.82;;;2.13;;
63089;SDS011;49174;43.198;27.824;2023-04-22T07:40:27;5.43;;;2.13;;
63089;SDS011;49174;43.198;27.824;2023-04-22T07:42:53;6.60;;;1.60;;
63089;SDS011;49174;43.198;27.824;2023-04-22T07:45:18;5.30;;;1.95;;
63089;SDS011;49174;43.198;27.824;2023-04-22T07:47:44;2.67;;;1.90;;
63089;SDS011;49174;43.198;27.824;2023-04-22T07:50:10;6.50;;;2.20;;
63089;SDS011;49174;43.198;27.824;2023-04-22T07:52:36;6.28;;;1.90;;
63089;SDS011;49174;43.198;27.824;2023-04-22T07:55:01;4.72;;;1.90;;
63089;SDS011;49174;43.198;27.824;2023-04-22T07:57:28;4.55;;;1.70;;
63089;SDS011;49174;43.198;27.824;2023-04-22T07:59:55;6.72;;;1.80;;
63089;SDS011;49174;43.198;27.824;2023-04-22T08:02:20;10.02;;;2.00;;
63089;SDS011;49174;43.198;27.824;2023-04-22T08:04:46;4.60;;;1.75;;
63089;SDS011;49174;43.198;27.824;2023-04-22T08:07:13;6.93;;;1.58;;
63089;SDS011;49174;43.198;27.824;2023-04-22T08:09:39;7.50;;;1.92;;
63089;SDS011;49174;43.198;27.824;2023-04-22T08:12:04;3.72;;;1.33;;
63089;SDS011;49174;43.198;27.824;2023-04-22T08:14:30;3.60;;;1.98;;
63089;SDS011;49174;43.198;27.824;2023-04-22T08:16:55;2.80;;;1.58;;
63089;SDS011;49174;43.198;27.824;2023-04-22T08:19:21;5.40;;;2.03;;
63089;SDS011;49174;43.198;27.824;2023-04-22T08:21:46;6.63;;;1.73;;
63089;SDS011;49174;43.198;27.824;2023-04-22T08:24:12;5.07;;;1.60;;
63089;SDS011;49174;43.198;27.824;2023-04-22T08:26:38;5.57;;;1.83;;
63089;SDS011;49174;43.198;27.824;2023-04-22T08:29:04;4.32;;;2.00;;
63089;SDS011;49174;43.198;27.824;2023-04-22T08:31:31;5.60;;;1.75;;
63089;SDS011;49174;43.198;27.824;2023-04-22T08:33:56;9.00;;;2.28;;
63089;SDS011;49174;43.198;27.824;2023-04-22T08:36:22;4.50;;;1.95;;
63089;SDS011;49174;43.198;27.824;2023-04-22T08:38:50;4.05;;;1.88;;
63089;SDS011;49174;43.198;27.824;2023-04-22T08:41:16;7.47;;;2.03;;
63089;SDS011;49174;43.198;27.824;2023-04-22T08:43:42;8.27;;;1.75;;
63089;SDS011;49174;43.198;27.824;2023-04-22T08:46:09;3.75;;;1.90;;
63089;SDS011;49174;43.198;27.824;2023-04-22T08:48:35;4.15;;;2.08;;
63089;SDS011;49174;43.198;27.824;2023-04-22T08:51:01;7.13;;;1.77;;
63089;SDS011;49174;43.198;27.824;2023-04-22T08:53:27;5.10;;;1.92;;
63089;SDS011;49174;43.198;27.824;2023-04-22T08:55:53;5.20;;;1.52;;
63089;SDS011;49174;43.198;27.824;2023-04-22T08:58:21;6.90;;;1.80;;
63089;SDS011;49174;43.198;27.824;2023-04-22T09:00:47;4.97;;;1.60;;
63089;SDS011;49174;43.198;27.824;2023-04-22T09:03:13;6.15;;;1.75;;
63089;SDS011;49174;43.198;27.824;2023-04-22T09:05:40;6.50;;;1.58;;
63089;SDS011;49174;43.198;27.824;2023-04-22T09:08:07;3.97;;;1.45;;
63089;SDS011;49174;43.198;27.824;2023-04-22T09:10:37;6.10;;;1.40;;
63089;SDS011;49174;43.198;27.824;2023-04-22T09:13:03;4.28;;;1.92;;
63089;SDS011;49174;43.198;27.824;2023-04-22T09:15:31;5.85;;;2.58;;
63089;SDS011;49174;43.198;27.824;2023-04-22T09:17:57;5.57;;;1.73;;
63089;SDS011;49174;43.198;27.824;2023-04-22T09:20:26;4.20;;;1.48;;
63089;SDS011;49174;43.198;27.824;2023-04-22T09:22:54;2.92;;;1.35;;
63089;SDS011;49174;43.198;27.824;2023-04-22T09:25:22;3.53;;;1.52;;
63089;SDS011;49174;43.198;27.824;2023-04-22T09:27:50;2.45;;;1.05;;
63089;SDS011;49174;43.198;27.824;2023-04-22T09:30:17;6.10;;;1.35;;
63089;SDS011;49174;43.198;27.824;2023-04-22T09:32:54;4.30;;;1.20;;
63089;SDS011;49174;43.198;27.824;2023-04-22T09:35:22;5.53;;;1.67;;
63089;SDS011;49174;43.198;27.824;2023-04-22T09:38:07;4.68;;;1.58;;
63089;SDS011;49174;43.198;27.824;2023-04-22T09:40:34;1.58;;;0.90;;
63089;SDS011;49174;43.198;27.824;2023-04-22T09:43:01;3.08;;;1.13;;
63089;SDS011;49174;43.198;27.824;2023-04-22T09:45:35;3.30;;;1.48;;
63089;SDS011;49174;43.198;27.824;2023-04-22T09:48:12;6.95;;;1.27;;
63089;SDS011;49174;43.198;27.824;2023-04-22T09:50:40;4.57;;;1.30;;
63089;SDS011;49174;43.198;27.824;2023-04-22T09:53:09;4.65;;;1.15;;
63089;SDS011;49174;43.198;27.824;2023-04-22T09:55:40;2.83;;;1.10;;
63089;SDS011;49174;43.198;27.824;2023-04-22T09:58:17;4.93;;;1.17;;
63089;SDS011;49174;43.198;27.824;2023-04-22T10:00:48;5.80;;;1.23;;
63089;SDS011;49174;43.198;27.824;2023-04-22T10:03:17;5.45;;;1.98;;
63089;SDS011;49174;43.198;27.824;2023-04-22T10:05:43;2.88;;;1.08;;
63089;SDS011;49174;43.198;27.824;2023-04-22T10:08:10;2.92;;;0.93;;
63089;SDS011;49174;43.198;27.824;2023-04-22T10:10:37;2.85;;;1.50;;
63089;SDS011;49174;43.198;27.824;2023-04-22T10:13:04;3.80;;;1.50;;
63089;SDS011;49174;43.198;27.824;2023-04-22T10:16:03;5.75;;;1.40;;
63089;SDS011;49174;43.198;27.824;2023-04-22T10:18:23;8.38;;;1.50;;
63089;SDS011;49174;43.198;27.824;2023-04-22T10:20:50;5.43;;;1.17;;
63089;SDS011;49174;43.198;27.824;2023-04-22T10:23:19;4.00;;;1.40;;
63089;SDS011;49174;43.198;27.824;2023-04-22T10:25:47;4.25;;;1.90;;
63089;SDS011;49174;43.198;27.824;2023-04-22T10:28:14;5.57;;;1.65;;
63089;SDS011;49174;43.198;27.824;2023-04-22T10:30:41;9.35;;;1.35;;
63089;SDS011;49174;43.198;27.824;2023-04-22T10:38:35;3.67;;;1.20;;
63089;SDS011;49174;43.198;27.824;2023-04-22T10:41:05;3.13;;;1.02;;
63089;SDS011;49174;43.198;27.824;2023-04-22T10:43:43;5.60;;;3.35;;
63089;SDS011;49174;43.198;27.824;2023-04-22T10:48:57;4.63;;;1.35;;
63089;SDS011;49174;43.198;27.824;2023-04-22T10:54:54;2.35;;;1.80;;
63089;SDS011;49174;43.198;27.824;2023-04-22T10:57:07;2.58;;;1.27;;
63089;SDS011;49174;43.198;27.824;2023-04-22T10:59:56;8.10;;;1.30;;
63089;SDS011;49174;43.198;27.824;2023-04-22T11:02:22;4.00;;;1.08;;
63089;SDS011;49174;43.198;27.824;2023-04-22T11:04:48;3.63;;;0.95;;
63089;SDS011;49174;43.198;27.824;2023-04-22T11:07:28;4.28;;;1.10;;
63089;SDS011;49174;43.198;27.824;2023-04-22T11:14:59;1.17;;;1.05;;
63089;SDS011;49174;43.198;27.824;2023-04-22T11:17:29;4.10;;;1.25;;
63089;SDS011;49174;43.198;27.824;2023-04-22T11:19:56;4.43;;;1.10;;
63089;SDS011;49174;43.198;27.824;2023-04-22T11:22:25;5.47;;;0.93;;
63089;SDS011;49174;43.198;27.824;2023-04-22T11:24:58;6.47;;;1.25;;
63089;SDS011;49174;43.198;27.824;2023-04-22T11:27:25;5.63;;;1.23;;
63089;SDS011;49174;43.198;27.824;2023-04-22T11:32:36;4.13;;;1.08;;
63089;SDS011;49174;43.198;27.824;2023-04-22T11:35:09;7.20;;;1.67;;
63089;SDS011;49174;43.198;27.824;2023-04-22T11:37:45;3.30;;;1.30;;
63089;SDS011;49174;43.198;27.824;2023-04-22T11:40:14;3.15;;;1.08;;
63089;SDS011;49174;43.198;27.824;2023-04-22T11:42:42;2.55;;;1.08;;
63089;SDS011;49174;43.198;27.824;2023-04-22T11:45:08;5.07;;;1.27;;
63089;SDS011;49174;43.198;27.824;2023-04-22T11:47:34;4.53;;;1.20;;
63089;SDS011;49174;43.198;27.824;2023-04-22T11:50:01;3.08;;;1.20;;
63089;SDS011;49174;43.198;27.824;2023-04-22T11:58:00;4.45;;;1.05;;
63089;SDS011;49174;43.198;27.824;2023-04-22T12:00:30;3.33;;;1.42;;
63089;SDS011;49174;43.198;27.824;2023-04-22T12:02:58;3.90;;;1.10;;
63089;SDS011;49174;43.198;27.824;2023-04-22T12:05:42;4.13;;;1.77;;
63089;SDS011;49174;43.198;27.824;2023-04-22T12:08:13;3.92;;;1.20;;
63089;SDS011;49174;43.198;27.824;2023-04-22T12:13:07;5.82;;;1.40;;
63089;SDS011;49174;43.198;27.824;2023-04-22T12:15:36;4.05;;;1.40;;
63089;SDS011;49174;43.198;27.824;2023-04-22T12:18:06;2.35;;;1.30;;
63089;SDS011;49174;43.198;27.824;2023-04-22T12:20:33;3.63;;;1.13;;
63089;SDS011;49174;43.198;27.824;2023-04-22T12:22:59;5.22;;;1.52;;
63089;SDS011;49174;43.198;27.824;2023-04-22T12:25:25;2.33;;;1.20;;
63089;SDS011;49174;43.198;27.824;2023-04-22T12:27:51;2.97;;;1.20;;
63089;SDS011;49174;43.198;27.824;2023-04-22T12:30:16;4.15;;;1.40;;
63089;SDS011;49174;43.198;27.824;2023-04-22T12:32:42;4.10;;;1.60;;
63089;SDS011;49174;43.198;27.824;2023-04-22T12:35:08;5.75;;;1.83;;
63089;SDS011;49174;43.198;27.824;2023-04-22T12:37:33;5.47;;;1.40;;
63089;SDS011;49174;43.198;27.824;2023-04-22T12:39:59;4.30;;;1.50;;
63089;SDS011;49174;43.198;27.824;2023-04-22T12:42:25;4.88;;;1.67;;
63089;SDS011;49174;43.198;27.824;2023-04-22T12:44:50;5.60;;;1.80;;
63089;SDS011;49174;43.198;27.824;2023-04-22T12:47:16;6.28;;;1.98;;
63089;SDS011;49174;43.198;27.824;2023-04-22T12:49:42;4.55;;;1.80;;
63089;SDS011;49174;43.198;27.824;2023-04-22T12:52:08;3.10;;;1.83;;
63089;SDS011;49174;43.198;27.824;2023-04-22T12:54:35;5.28;;;1.65;;
63089;SDS011;49174;43.198;27.824;2023-04-22T12:57:01;7.28;;;2.13;;
63089;SDS011;49174;43.198;27.824;2023-04-22T12:59:26;5.50;;;2.63;;
63089;SDS011;49174;43.198;27.824;2023-04-22T13:04:34;2.75;;;1.92;;
63089;SDS011;49174;43.198;27.824;2023-04-22T13:09:43;5.00;;;2.20;;
63089;SDS011;49174;43.198;27.824;2023-04-22T13:12:09;8.18;;;2.33;;
63089;SDS011;49174;43.198;27.824;2023-04-22T13:14:35;4.68;;;2.50;;
63089;SDS011;49174;43.198;27.824;2023-04-22T13:17:01;4.05;;;2.47;;
63089;SDS011;49174;43.198;27.824;2023-04-22T13:19:28;5.57;;;2.35;;
63089;SDS011;49174;43.198;27.824;2023-04-22T13:21:53;4.40;;;2.30;;
63089;SDS011;49174;43.198;27.824;2023-04-22T13:24:19;11.48;;;3.25;;
63089;SDS011;49174;43.198;27.824;2023-04-22T13:26:45;7.35;;;2.80;;
63089;SDS011;49174;43.198;27.824;2023-04-22T13:29:10;5.63;;;2.80;;
63089;SDS011;49174;43.198;27.824;2023-04-22T13:31:41;8.57;;;3.95;;
63089;SDS011;49174;43.198;27.824;2023-04-22T13:34:09;8.60;;;3.25;;
63089;SDS011;49174;43.198;27.824;2023-04-22T13:39:17;6.32;;;2.25;;
63089;SDS011;49174;43.198;27.824;2023-04-22T13:41:45;5.10;;;2.30;;
63089;SDS011;49174;43.198;27.824;2023-04-22T13:44:11;7.65;;;2.33;;
63089;SDS011;49174;43.198;27.824;2023-04-22T13:46:38;7.38;;;2.20;;
63089;SDS011;49174;43.198;27.824;2023-04-22T13:49:04;4.15;;;2.35;;
63089;SDS011;49174;43.198;27.824;2023-04-22T13:51:29;5.47;;;1.90;;
63089;SDS011;49174;43.198;27.824;2023-04-22T13:53:56;3.80;;;2.15;;
63089;SDS011;49174;43.198;27.824;2023-04-22T13:56:23;4.60;;;2.15;;
63089;SDS011;49174;43.198;27.824;2023-04-22T13:58:49;4.97;;;1.88;;
63089;SDS011;49174;43.198;27.824;2023-04-22T14:01:15;2.95;;;1.75;;
63089;SDS011;49174;43.198;27.824;2023-04-22T14:03:42;5.18;;;2.35;;
63089;SDS011;49174;43.198;27.824;2023-04-22T14:06:07;6.10;;;1.70;;
63089;SDS011;49174;43.198;27.824;2023-04-22T14:08:33;2.70;;;1.52;;
63089;SDS011;49174;43.198;27.824;2023-04-22T14:10:59;3.53;;;1.90;;
63089;SDS011;49174;43.198;27.824;2023-04-22T14:13:27;3.40;;;1.77;;
63089;SDS011;49174;43.198;27.824;2023-04-22T14:15:53;6.15;;;2.08;;
63089;SDS011;49174;43.198;27.824;2023-04-22T14:18:19;4.53;;;1.50;;
63089;SDS011;49174;43.198;27.824;2023-04-22T14:20:48;3.20;;;1.70;;
63089;SDS011;49174;43.198;27.824;2023-04-22T14:23:15;14.00;;;8.73;;
63089;SDS011;49174;43.198;27.824;2023-04-22T14:25:42;4.05;;;2.03;;
63089;SDS011;49174;43.198;27.824;2023-04-22T14:28:08;5.88;;;2.10;;
63089;SDS011;49174;43.198;27.824;2023-04-22T14:30:34;4.72;;;1.92;;
63089;SDS011;49174;43.198;27.824;2023-04-22T14:33:01;5.72;;;2.83;;
63089;SDS011;49174;43.198;27.824;2023-04-22T14:35:26;6.10;;;2.40;;
63089;SDS011;49174;43.198;27.824;2023-04-22T14:37:52;8.82;;;2.30;;
63089;SDS011;49174;43.198;27.824;2023-04-22T14:40:17;3.92;;;1.60;;
63089;SDS011;49174;43.198;27.824;2023-04-22T14:42:44;4.63;;;1.92;;
63089;SDS011;49174;43.198;27.824;2023-04-22T14:45:10;4.00;;;1.85;;
63089;SDS011;49174;43.198;27.824;2023-04-22T14:47:35;2.05;;;1.33;;
63089;SDS011;49174;43.198;27.824;2023-04-22T14:50:01;3.55;;;1.55;;
63089;SDS011;49174;43.198;27.824;2023-04-22T14:52:27;3.05;;;1.77;;
63089;SDS011;49174;43.198;27.824;2023-04-22T14:54:52;2.55;;;1.40;;
63089;SDS011;49174;43.198;27.824;2023-04-22T14:57:18;5.15;;;3.38;;
63089;SDS011;49174;43.198;27.824;2023-04-22T14:59:43;5.78;;;2.08;;
63089;SDS011;49174;43.198;27.824;2023-04-22T15:02:10;4.20;;;1.60;;
63089;SDS011;49174;43.198;27.824;2023-04-22T15:04:41;2.75;;;1.52;;
63089;SDS011;49174;43.198;27.824;2023-04-22T15:07:08;4.18;;;1.70;;
63089;SDS011;49174;43.198;27.824;2023-04-22T15:09:34;4.65;;;1.90;;
63089;SDS011;49174;43.198;27.824;2023-04-22T15:12:00;4.15;;;1.85;;
63089;SDS011;49174;43.198;27.824;2023-04-22T15:14:29;4.60;;;1.70;;
63089;SDS011;49174;43.198;27.824;2023-04-22T15:16:56;5.53;;;1.90;;
63089;SDS011;49174;43.198;27.824;2023-04-22T15:19:21;4.80;;;2.03;;
63089;SDS011;49174;43.198;27.824;2023-04-22T15:21:47;6.10;;;2.00;;
63089;SDS011;49174;43.198;27.824;2023-04-22T15:24:12;4.35;;;1.92;;
63089;SDS011;49174;43.198;27.824;2023-04-22T15:26:38;4.38;;;1.90;;
63089;SDS011;49174;43.198;27.824;2023-04-22T15:29:04;4.55;;;2.13;;
63089;SDS011;49174;43.198;27.824;2023-04-22T15:31:30;8.98;;;2.40;;
63089;SDS011;49174;43.198;27.824;2023-04-22T15:33:56;8.80;;;2.10;;
63089;SDS011;49174;43.198;27.824;2023-04-22T15:36:21;5.28;;;2.83;;
63089;SDS011;49174;43.198;27.824;2023-04-22T15:38:48;9.27;;;4.57;;
63089;SDS011;49174;43.198;27.824;2023-04-22T15:41:19;6.68;;;2.90;;
63089;SDS011;49174;43.198;27.824;2023-04-22T15:43:44;9.63;;;6.30;;
63089;SDS011;49174;43.198;27.824;2023-04-22T16:32:04;4.50;;;3.38;;
63089;SDS011;49174;43.198;27.824;2023-04-22T16:40:13;8.32;;;3.40;;
63089;SDS011;49174;43.198;27.824;2023-04-22T16:42:39;3.70;;;2.40;;
63089;SDS011;49174;43.198;27.824;2023-04-22T16:45:05;8.27;;;2.40;;
63089;SDS011;49174;43.198;27.824;2023-04-22T16:47:31;4.57;;;2.45;;
63089;SDS011;49174;43.198;27.824;2023-04-22T16:49:57;6.32;;;3.05;;
63089;SDS011;49174;43.198;27.824;2023-04-22T16:52:23;5.43;;;3.50;;
63089;SDS011;49174;43.198;27.824;2023-04-22T16:54:48;5.35;;;3.13;;
63089;SDS011;49174;43.198;27.824;2023-04-22T16:57:15;7.45;;;4.80;;
63089;SDS011;49174;43.198;27.824;2023-04-22T16:59:43;9.98;;;8.32;;
63089;SDS011;49174;43.198;27.824;2023-04-22T17:02:08;12.27;;;9.43;;
63089;SDS011;49174;43.198;27.824;2023-04-22T17:04:34;9.93;;;7.78;;
63089;SDS011;49174;43.198;27.824;2023-04-22T17:07:00;23.00;;;19.17;;
63089;SDS011;49174;43.198;27.824;2023-04-22T17:09:25;19.00;;;17.00;;
63089;SDS011;49174;43.198;27.824;2023-04-22T17:11:51;13.00;;;11.27;;
63089;SDS011;49174;43.198;27.824;2023-04-22T17:14:16;8.20;;;5.78;;
63089;SDS011;49174;43.198;27.824;2023-04-22T17:16:41;8.23;;;3.28;;
63089;SDS011;49174;43.198;27.824;2023-04-22T17:19:07;7.25;;;2.83;;
63089;SDS011;49174;43.198;27.824;2023-04-22T17:21:32;5.97;;;3.28;;
63089;SDS011;49174;43.198;27.824;2023-04-22T17:23:58;10.18;;;5.25;;
63089;SDS011;49174;43.198;27.824;2023-04-22T17:26:26;7.15;;;4.72;;
63089;SDS011;49174;43.198;27.824;2023-04-22T17:28:52;6.65;;;2.60;;
63089;SDS011;49174;43.198;27.824;2023-04-22T17:31:17;4.93;;;2.90;;
63089;SDS011;49174;43.198;27.824;2023-04-22T17:33:43;4.55;;;2.42;;
63089;SDS011;49174;43.198;27.824;2023-04-22T17:36:09;8.68;;;2.95;;
63089;SDS011;49174;43.198;27.824;2023-04-22T17:38:34;6.07;;;2.90;;
63089;SDS011;49174;43.198;27.824;2023-04-22T17:41:00;4.72;;;2.65;;
63089;SDS011;49174;43.198;27.824;2023-04-22T17:43:25;4.97;;;2.60;;
63089;SDS011;49174;43.198;27.824;2023-04-22T17:45:51;4.68;;;2.70;;
63089;SDS011;49174;43.198;27.824;2023-04-22T17:48:16;9.02;;;3.33;;
63089;SDS011;49174;43.198;27.824;2023-04-22T17:50:44;8.43;;;5.93;;
